Time;durP1;ratioP1;P1;durP2;ratioP2;P2;SDS_P1;SDS_P2;PMS_P1;PMS_P2;Temp;Humidity;BMP_temperature;BMP_pressure;BME280_temperature;BME280_humidity;BME280_pressure;Samples;Min_cycle;Max_cycle;Signal;HPM_P1;HPM_P2
2021/07/26 00:00:51;;;;;;;2.43;1.10;;;21.90;99.90;;;;;;4992200;28;20206;-82
2021/07/26 00:03:17;;;;;;;1.50;1.10;;;21.90;99.90;;;;;;4992482;28;20171;-82
2021/07/26 00:05:42;;;;;;;2.07;1.00;;;21.90;99.90;;;;;;4958619;28;20582;-81
2021/07/26 00:08:08;;;;;;;1.30;1.10;;;21.90;99.90;;;;;;4992339;28;20198;-82
2021/07/26 00:10:35;;;;;;;1.50;1.00;;;21.90;99.90;;;;;;4991931;28;20262;-82
2021/07/26 00:13:02;;;;;;;1.90;1.17;;;21.90;99.90;;;;;;4974946;28;20206;-83
2021/07/26 00:15:29;;;;;;;1.50;0.90;;;21.90;99.90;;;;;;4995354;28;20578;-83
2021/07/26 00:17:55;;;;;;;1.63;1.20;;;21.90;99.90;;;;;;4974969;28;20609;-82
2021/07/26 00:20:21;;;;;;;1.70;1.00;;;21.90;99.90;;;;;;4993362;28;20585;-83
2021/07/26 00:22:48;;;;;;;1.50;0.97;;;21.90;99.90;;;;;;4996311;28;20582;-82
2021/07/26 00:25:14;;;;;;;1.50;1.03;;;21.80;99.90;;;;;;4996581;28;20179;-83
2021/07/26 00:27:39;;;;;;;1.70;0.90;;;21.80;99.90;;;;;;4996078;28;20602;-82
2021/07/26 00:30:06;;;;;;;1.60;1.00;;;21.80;99.90;;;;;;4978663;28;20171;-83
2021/07/26 00:32:34;;;;;;;3.47;1.20;;;21.80;99.90;;;;;;4996000;28;20203;-82
2021/07/26 00:35:00;;;;;;;2.07;0.80;;;21.80;99.90;;;;;;4978794;28;20594;-81
2021/07/26 00:37:27;;;;;;;1.60;0.90;;;21.80;99.90;;;;;;4996027;28;20598;-81
2021/07/26 00:39:53;;;;;;;1.80;1.00;;;21.80;99.90;;;;;;4995848;28;20605;-82
2021/07/26 00:42:20;;;;;;;2.43;0.90;;;21.80;99.90;;;;;;4978612;28;20673;-81
2021/07/26 00:44:46;;;;;;;1.80;1.20;;;21.90;99.90;;;;;;4983822;28;20593;-81
2021/07/26 00:47:12;;;;;;;1.50;1.00;;;21.90;99.90;;;;;;4996886;28;20942;-82
2021/07/26 00:49:38;;;;;;;1.67;1.10;;;21.90;99.90;;;;;;4978720;28;20593;-82
2021/07/26 00:52:05;;;;;;;1.90;1.40;;;21.90;99.90;;;;;;4981823;28;21231;-82
2021/07/26 00:54:33;;;;;;;2.03;0.80;;;21.90;99.90;;;;;;4995988;28;20582;-82
2021/07/26 00:57:02;;;;;;;1.77;1.10;;;21.90;99.90;;;;;;4995575;28;20605;-82
2021/07/26 00:59:28;;;;;;;1.40;1.00;;;21.90;99.90;;;;;;4978500;28;20582;-83
2021/07/26 01:01:54;;;;;;;1.50;0.90;;;21.90;99.90;;;;;;4995892;28;20666;-82
2021/07/26 01:04:20;;;;;;;1.63;1.40;;;21.90;99.90;;;;;;4995625;28;20575;-82
2021/07/26 01:06:46;;;;;;;1.60;1.20;;;21.90;99.90;;;;;;4978311;28;20621;-82
2021/07/26 01:09:14;;;;;;;1.80;1.00;;;21.90;99.90;;;;;;4978494;28;20585;-82
2021/07/26 01:11:40;;;;;;;4.17;1.03;;;21.90;99.90;;;;;;4995507;28;20570;-82
2021/07/26 01:14:06;;;;;;;1.77;0.90;;;21.90;99.90;;;;;;4995757;28;20665;-82
2021/07/26 01:16:32;;;;;;;1.80;1.00;;;21.90;99.90;;;;;;4978469;28;20637;-82
2021/07/26 01:19:01;;;;;;;1.60;0.80;;;21.90;99.90;;;;;;4995689;28;20179;-82
2021/07/26 01:21:27;;;;;;;1.60;1.07;;;21.90;99.90;;;;;;4995491;28;20574;-82
2021/07/26 01:23:53;;;;;;;1.60;1.00;;;21.80;99.90;;;;;;4995433;28;20596;-81
2021/07/26 01:26:21;;;;;;;2.13;1.33;;;21.80;99.90;;;;;;4977665;28;21207;-82
2021/07/26 01:28:50;;;;;;;1.73;1.00;;;21.80;99.90;;;;;;4982695;28;20578;-81
2021/07/26 01:31:17;;;;;;;1.80;1.10;;;21.70;99.90;;;;;;4994583;28;20633;-81
2021/07/26 01:33:44;;;;;;;2.20;1.07;;;21.70;99.90;;;;;;4976664;28;20636;-81
2021/07/26 01:36:10;;;;;;;2.73;1.23;;;21.70;99.90;;;;;;4988097;28;20640;-82
2021/07/26 01:38:36;;;;;;;2.20;1.30;;;21.60;99.90;;;;;;4982514;28;20582;-82
2021/07/26 01:41:03;;;;;;;1.70;1.20;;;21.60;99.90;;;;;;5000241;28;20589;-83
2021/07/26 01:43:33;;;;;;;1.60;1.30;;;21.60;99.90;;;;;;4977633;28;20317;-82
2021/07/26 01:46:27;;;;;;;2.23;1.37;;;21.60;99.90;;;;;;4994813;28;20570;-81
2021/07/26 01:49:01;;;;;;;1.87;1.23;;;21.50;99.90;;;;;;4977258;28;20581;-81
2021/07/26 01:51:35;;;;;;;2.50;1.23;;;21.50;99.90;;;;;;4994607;28;20570;-81
2021/07/26 01:54:01;;;;;;;3.10;1.33;;;21.50;99.90;;;;;;4994434;28;20984;-81
2021/07/26 01:56:27;;;;;;;2.30;1.23;;;21.50;99.90;;;;;;4960850;28;20704;-81
2021/07/26 01:58:52;;;;;;;3.40;1.50;;;21.50;99.90;;;;;;4994820;28;20553;-81
2021/07/26 02:01:18;;;;;;;2.10;1.40;;;21.40;99.90;;;;;;4994295;28;20570;-81
2021/07/26 02:03:44;;;;;;;1.60;1.30;;;21.40;99.90;;;;;;4997946;28;20198;-82
2021/07/26 02:06:09;;;;;;;4.80;1.10;;;21.30;99.90;;;;;;4977125;28;20191;-82
2021/07/26 02:08:35;;;;;;;2.40;1.47;;;21.30;99.90;;;;;;4977236;28;20195;-82
2021/07/26 02:11:01;;;;;;;2.40;1.50;;;21.30;99.90;;;;;;4976730;28;20171;-80
2021/07/26 02:13:26;;;;;;;2.00;1.20;;;21.30;99.90;;;;;;4976827;28;20205;-81
2021/07/26 02:15:52;;;;;;;1.87;1.47;;;21.30;99.90;;;;;;4976532;28;20298;-81
2021/07/26 02:18:18;;;;;;;1.83;1.47;;;21.30;99.90;;;;;;4976695;28;20194;-81
2021/07/26 02:20:43;;;;;;;1.60;1.10;;;21.20;99.90;;;;;;4993981;28;20174;-82
2021/07/26 02:23:09;;;;;;;2.07;1.13;;;21.30;99.90;;;;;;4994108;28;20172;-80
2021/07/26 02:25:38;;;;;;;2.70;1.20;;;21.30;99.90;;;;;;4976543;28;20163;-81
2021/07/26 02:28:03;;;;;;;2.30;1.43;;;21.20;99.90;;;;;;4993844;28;20226;-81
2021/07/26 02:30:29;;;;;;;2.17;1.00;;;21.20;99.90;;;;;;4993856;28;20621;-81
2021/07/26 02:32:55;;;;;;;2.27;1.90;;;21.20;99.90;;;;;;4960249;28;20214;-81
2021/07/26 02:35:20;;;;;;;2.50;1.73;;;21.20;99.90;;;;;;4994098;28;20599;-81
2021/07/26 02:37:46;;;;;;;2.40;1.60;;;21.20;99.90;;;;;;4976388;28;20540;-81
2021/07/26 02:40:12;;;;;;;2.10;1.43;;;21.10;99.90;;;;;;4997570;28;20167;-82
2021/07/26 02:42:38;;;;;;;1.80;1.27;;;21.10;99.90;;;;;;4978282;28;20197;-80
2021/07/26 02:45:04;;;;;;;2.43;1.30;;;21.10;99.90;;;;;;4976508;28;21149;-81
2021/07/26 02:47:30;;;;;;;2.33;1.30;;;21.20;99.90;;;;;;4993372;28;20195;-81
2021/07/26 02:49:56;;;;;;;2.63;2.10;;;21.20;99.90;;;;;;4993151;28;20578;-80
2021/07/26 02:52:21;;;;;;;2.37;1.63;;;21.20;99.90;;;;;;4993470;28;20195;-81
2021/07/26 02:54:47;;;;;;;3.07;1.50;;;21.20;99.90;;;;;;4976153;28;20167;-82
2021/07/26 02:57:12;;;;;;;2.63;1.20;;;21.10;99.90;;;;;;4993234;28;20285;-83
2021/07/26 02:59:38;;;;;;;4.13;1.57;;;21.10;99.90;;;;;;4975781;28;20186;-82
2021/07/26 03:02:04;;;;;;;2.50;1.63;;;21.10;99.90;;;;;;4975976;28;20299;-82
2021/07/26 03:04:30;;;;;;;2.90;1.47;;;21.00;99.90;;;;;;4960038;28;20198;-81
2021/07/26 03:06:56;;;;;;;1.83;1.10;;;21.00;99.90;;;;;;4994849;28;20214;-81
2021/07/26 03:09:22;;;;;;;1.83;1.23;;;21.00;99.90;;;;;;4995843;28;20899;-81
2021/07/26 03:11:47;;;;;;;1.93;1.40;;;21.00;99.90;;;;;;4995220;28;20179;-81
2021/07/26 03:14:13;;;;;;;2.07;1.30;;;21.00;99.90;;;;;;4996111;28;20237;-81
2021/07/26 03:16:38;;;;;;;1.93;1.73;;;21.00;99.90;;;;;;4999236;28;20186;-81
2021/07/26 03:19:04;;;;;;;1.70;1.10;;;21.00;99.90;;;;;;4996240;28;20171;-81
2021/07/26 03:21:30;;;;;;;2.70;1.30;;;20.90;99.90;;;;;;4993270;28;20174;-82
2021/07/26 03:23:56;;;;;;;2.47;1.93;;;20.90;99.90;;;;;;4993786;28;20171;-82
2021/07/26 03:26:21;;;;;;;1.80;1.37;;;20.90;99.90;;;;;;4975648;28;20564;-82
2021/07/26 03:28:47;;;;;;;2.00;1.10;;;20.90;99.90;;;;;;4993527;28;20177;-82
2021/07/26 03:31:12;;;;;;;1.97;1.50;;;20.90;99.90;;;;;;4975678;28;20186;-82
2021/07/26 03:33:38;;;;;;;2.47;1.23;;;20.90;99.90;;;;;;4992753;28;20194;-83
2021/07/26 03:36:04;;;;;;;2.10;1.30;;;20.80;99.90;;;;;;4975465;28;20163;-83
2021/07/26 03:38:30;;;;;;;2.20;1.30;;;20.80;99.90;;;;;;4992696;28;20168;-80
2021/07/26 03:40:56;;;;;;;2.63;1.70;;;20.80;99.90;;;;;;4992568;28;20586;-80
2021/07/26 03:43:21;;;;;;;3.30;1.70;;;20.80;99.90;;;;;;4975191;28;20167;-81
2021/07/26 03:45:47;;;;;;;3.17;1.80;;;20.80;99.90;;;;;;4975229;28;20167;-83
2021/07/26 03:48:13;;;;;;;2.87;1.63;;;20.80;99.90;;;;;;4975233;28;20190;-82
2021/07/26 03:50:39;;;;;;;1.90;1.67;;;20.70;99.90;;;;;;4974932;28;20228;-82
2021/07/26 03:53:05;;;;;;;1.70;1.50;;;20.70;99.90;;;;;;4975872;28;20554;-82
2021/07/26 03:55:33;;;;;;;1.70;1.40;;;20.70;99.90;;;;;;4994378;28;20570;-82
2021/07/26 03:57:59;;;;;;;3.83;1.87;;;20.70;99.90;;;;;;4992773;28;20211;-77
2021/07/26 04:00:27;;;;;;;2.27;1.57;;;20.70;99.90;;;;;;4991833;28;20569;-76
2021/07/26 04:05:43;;;;;;;1.90;1.40;;;20.70;99.90;;;;;;4974801;28;20582;-77
2021/07/26 04:08:22;;;;;;;1.97;1.47;;;20.60;99.90;;;;;;4992284;28;20649;-77
2021/07/26 04:11:00;;;;;;;2.67;1.70;;;20.60;99.90;;;;;;4991889;28;20573;-77
2021/07/26 04:13:26;;;;;;;2.80;1.70;;;20.60;99.90;;;;;;4974894;28;20622;-77
2021/07/26 04:15:52;;;;;;;1.60;1.00;;;20.60;99.90;;;;;;4974605;28;20570;-77
2021/07/26 04:18:18;;;;;;;2.23;1.60;;;20.60;99.90;;;;;;4991999;28;20194;-77
2021/07/26 04:20:44;;;;;;;2.50;1.43;;;20.60;99.90;;;;;;4991975;28;20159;-77
2021/07/26 04:23:10;;;;;;;2.83;1.67;;;20.70;99.90;;;;;;4992126;28;20175;-77
2021/07/26 04:25:36;;;;;;;3.07;1.80;;;20.70;99.90;;;;;;4974581;28;20207;-77
2021/07/26 04:28:02;;;;;;;2.77;1.60;;;20.70;99.90;;;;;;4991725;28;20625;-77
2021/07/26 04:30:28;;;;;;;1.93;1.37;;;20.70;99.90;;;;;;4995004;28;20586;-77
2021/07/26 04:32:54;;;;;;;2.70;1.30;;;20.80;99.90;;;;;;4974435;28;20203;-77
2021/07/26 04:35:19;;;;;;;2.03;1.10;;;20.80;99.90;;;;;;4974551;28;20270;-78
2021/07/26 04:37:46;;;;;;;2.30;1.70;;;20.70;99.90;;;;;;4991645;28;20186;-78
2021/07/26 04:40:12;;;;;;;3.43;1.60;;;20.70;99.90;;;;;;4991783;28;20596;-77
2021/07/26 04:42:40;;;;;;;2.50;1.60;;;20.70;99.90;;;;;;4992503;28;20639;-78
2021/07/26 04:45:07;;;;;;;1.93;1.20;;;20.70;99.90;;;;;;4974371;28;20629;-78
2021/07/26 04:47:33;;;;;;;2.70;1.40;;;20.70;99.90;;;;;;4974245;28;20605;-78
2021/07/26 04:49:59;;;;;;;2.00;1.67;;;20.80;99.90;;;;;;4991398;28;20585;-78
2021/07/26 04:52:26;;;;;;;2.53;1.43;;;20.80;99.90;;;;;;4991943;28;20941;-76
2021/07/26 04:54:52;;;;;;;2.77;1.20;;;20.80;99.90;;;;;;4974282;28;20629;-77
2021/07/26 04:57:18;;;;;;;2.67;1.77;;;20.80;99.90;;;;;;4974164;28;20621;-78
2021/07/26 04:59:44;;;;;;;2.93;1.50;;;20.80;99.90;;;;;;4991787;28;20178;-77
2021/07/26 05:02:09;;;;;;;1.80;1.40;;;20.80;99.90;;;;;;4992621;28;20179;-77
2021/07/26 05:04:35;;;;;;;2.10;1.90;;;20.80;99.90;;;;;;4992609;28;20571;-77
2021/07/26 05:07:01;;;;;;;2.10;1.60;;;20.90;99.90;;;;;;4996976;28;20183;-77
2021/07/26 05:09:28;;;;;;;3.80;1.80;;;21.00;99.90;;;;;;4977973;28;20314;-77
2021/07/26 05:11:59;;;;;;;2.97;1.70;;;21.00;99.90;;;;;;4977225;28;20600;-76
2021/07/26 05:14:25;;;;;;;2.30;1.90;;;21.10;99.90;;;;;;4995324;28;20938;-77
2021/07/26 05:16:50;;;;;;;2.50;1.80;;;21.10;99.90;;;;;;4977469;28;20597;-76
2021/07/26 05:19:16;;;;;;;4.23;2.47;;;21.20;99.90;;;;;;4995132;28;20562;-76
2021/07/26 05:21:42;;;;;;;2.57;1.30;;;21.30;99.90;;;;;;4977372;28;20210;-77
2021/07/26 05:24:08;;;;;;;3.60;1.40;;;21.30;99.90;;;;;;4995106;28;21013;-77
2021/07/26 05:26:33;;;;;;;2.10;1.57;;;21.40;99.90;;;;;;4987905;28;20198;-80
2021/07/26 05:28:59;;;;;;;3.10;1.50;;;21.50;99.90;;;;;;5001452;28;20202;-80
2021/07/26 05:31:26;;;;;;;2.00;1.50;;;21.50;99.90;;;;;;5001576;28;20167;-81
2021/07/26 05:33:52;;;;;;;2.10;1.90;;;21.60;99.90;;;;;;4982410;28;20210;-80
2021/07/26 05:36:19;;;;;;;2.13;1.73;;;21.70;99.90;;;;;;4998240;28;20573;-80
2021/07/26 05:38:45;;;;;;;2.67;1.50;;;21.70;99.90;;;;;;4976327;28;20202;-80
2021/07/26 05:41:17;;;;;;;2.30;1.60;;;21.80;99.90;;;;;;5000721;28;20587;-81
2021/07/26 05:43:43;;;;;;;2.03;1.40;;;21.90;99.90;;;;;;4969208;28;20542;-81
2021/07/26 05:46:09;;;;;;;1.80;1.40;;;21.90;99.90;;;;;;4983499;28;20611;-81
2021/07/26 05:48:35;;;;;;;2.40;1.63;;;22.00;99.90;;;;;;4999866;28;20618;-80
2021/07/26 05:51:01;;;;;;;2.40;1.90;;;22.10;99.90;;;;;;4979558;28;20648;-80
2021/07/26 05:53:26;;;;;;;2.60;1.73;;;22.10;99.90;;;;;;4983389;28;20179;-80
2021/07/26 05:55:52;;;;;;;4.40;1.93;;;22.20;99.90;;;;;;4999649;28;20220;-80
2021/07/26 05:58:18;;;;;;;2.03;1.53;;;22.30;99.90;;;;;;4993222;28;20191;-80
2021/07/26 06:00:57;;;;;;;2.33;1.43;;;22.40;99.90;;;;;;4981713;28;20190;-81
2021/07/26 06:03:23;;;;;;;3.00;1.67;;;22.70;99.90;;;;;;4998578;28;20163;-80
2021/07/26 06:05:49;;;;;;;3.90;1.70;;;23.20;99.90;;;;;;5000822;28;20593;-80
2021/07/26 06:08:16;;;;;;;2.87;1.50;;;23.80;99.90;;;;;;5020418;28;20599;-79
2021/07/26 06:10:42;;;;;;;1.50;1.07;;;24.30;99.90;;;;;;4998580;28;20719;-80
2021/07/26 06:13:07;;;;;;;2.73;1.50;;;25.10;99.90;;;;;;5017152;28;20621;-80
2021/07/26 06:15:38;;;;;;;3.10;1.17;;;26.10;99.90;;;;;;5018139;28;20202;-81
2021/07/26 06:18:04;;;;;;;1.80;1.37;;;27.00;99.90;;;;;;5014590;28;20198;-82
2021/07/26 06:20:31;;;;;;;2.80;1.10;;;28.10;99.90;;;;;;4995773;28;20601;-80
2021/07/26 06:22:57;;;;;;;2.00;1.30;;;29.00;99.90;;;;;;5000158;28;20182;-79
2021/07/26 06:25:25;;;;;;;4.53;1.23;;;29.60;99.90;;;;;;4997712;28;20578;-80
2021/07/26 06:27:52;;;;;;;2.43;1.60;;;30.00;99.90;;;;;;4974907;28;20191;-81
2021/07/26 06:30:17;;;;;;;2.97;1.40;;;30.30;99.90;;;;;;4982111;28;20599;-79
2021/07/26 06:32:48;;;;;;;3.00;1.40;;;30.60;99.90;;;;;;4971231;28;20626;-81
2021/07/26 06:35:13;;;;;;;3.03;1.30;;;30.80;99.90;;;;;;4967707;28;20304;-79
2021/07/26 06:37:42;;;;;;;2.17;1.10;;;30.90;99.90;;;;;;4973123;28;20587;-80
2021/07/26 06:40:08;;;;;;;1.70;1.30;;;30.90;99.90;;;;;;4968795;28;20179;-81
2021/07/26 06:42:34;;;;;;;1.80;1.10;;;30.70;99.90;;;;;;4984974;28;20567;-81
2021/07/26 06:45:07;;;;;;;1.50;1.00;;;30.50;99.90;;;;;;4979983;28;20618;-80
2021/07/26 06:47:33;;;;;;;2.80;1.13;;;30.30;99.90;;;;;;4992371;28;20191;-81
2021/07/26 06:50:00;;;;;;;1.50;1.07;;;30.10;99.90;;;;;;4999733;28;20579;-80
2021/07/26 06:52:26;;;;;;;3.03;1.43;;;29.90;99.90;;;;;;4996199;28;20654;-81
2021/07/26 06:55:02;;;;;;;2.23;1.40;;;29.70;99.90;;;;;;4975576;28;20571;-80
2021/07/26 06:57:28;;;;;;;1.80;1.00;;;29.40;99.90;;;;;;4954883;28;20206;-81
2021/07/26 06:59:54;;;;;;;2.27;1.40;;;29.40;99.90;;;;;;4991702;28;20571;-82
2021/07/26 07:02:21;;;;;;;1.73;1.03;;;29.50;99.90;;;;;;4975342;28;20172;-80
2021/07/26 07:04:47;;;;;;;1.97;1.20;;;29.50;99.90;;;;;;4976597;28;20579;-81
2021/07/26 07:07:14;;;;;;;2.53;1.20;;;29.60;99.90;;;;;;4973113;28;20758;-81
2021/07/26 07:09:40;;;;;;;1.93;1.07;;;29.50;99.90;;;;;;4989903;28;20180;-81
2021/07/26 07:12:06;;;;;;;1.63;1.27;;;29.40;99.90;;;;;;4973595;28;20599;-80
2021/07/26 07:14:35;;;;;;;2.03;1.53;;;29.30;99.90;;;;;;4993966;28;20198;-80
2021/07/26 07:17:01;;;;;;;1.63;1.10;;;29.10;99.90;;;;;;4974567;28;20614;-82
2021/07/26 07:19:27;;;;;;;1.90;1.27;;;29.00;99.90;;;;;;4989083;28;20583;-81
2021/07/26 07:21:53;;;;;;;2.13;1.30;;;29.00;99.90;;;;;;4971015;28;21141;-81
2021/07/26 07:24:18;;;;;;;2.00;1.40;;;29.30;99.90;;;;;;4954579;28;20183;-82
2021/07/26 07:26:44;;;;;;;2.30;1.30;;;29.80;99.90;;;;;;4964205;28;20237;-84
2021/07/26 07:29:10;;;;;;;2.10;1.13;;;30.30;99.90;;;;;;4978546;28;20178;-83
2021/07/26 07:31:38;;;;;;;1.80;1.20;;;31.10;99.90;;;;;;4987110;28;20176;-81
2021/07/26 07:34:05;;;;;;;4.10;1.97;;;32.00;99.90;;;;;;4993788;28;20180;-81
2021/07/26 07:36:31;;;;;;;1.80;1.00;;;33.00;99.90;;;;;;4998435;28;20597;-80
2021/07/26 07:38:59;;;;;;;1.87;1.53;;;33.90;99.70;;;;;;5017219;28;20570;-81
2021/07/26 07:41:25;;;;;;;2.37;1.30;;;34.70;98.30;;;;;;4997068;28;20595;-81
2021/07/26 07:43:51;;;;;;;2.77;1.23;;;35.50;97.10;;;;;;4997682;28;20567;-81
2021/07/26 07:46:19;;;;;;;1.40;1.07;;;36.20;95.50;;;;;;4996934;28;20641;-80
2021/07/26 07:48:46;;;;;;;1.30;0.90;;;36.90;94.00;;;;;;4997441;28;20598;-82
2021/07/26 07:51:12;;;;;;;1.67;1.00;;;37.50;91.70;;;;;;4979856;28;20669;-81
2021/07/26 07:53:38;;;;;;;2.00;1.13;;;38.00;89.50;;;;;;4981964;28;20637;-82
2021/07/26 07:56:04;;;;;;;2.20;1.13;;;38.40;86.00;;;;;;5010889;28;20178;-80
2021/07/26 07:58:30;;;;;;;1.83;1.40;;;38.70;82.20;;;;;;5002546;28;20597;-83
2021/07/26 08:00:56;;;;;;;2.00;1.20;;;39.10;80.20;;;;;;4989399;28;21209;-81
2021/07/26 08:03:23;;;;;;;1.70;1.20;;;39.50;77.70;;;;;;4982028;28;20710;-82
2021/07/26 08:05:49;;;;;;;2.83;1.60;;;39.90;75.30;;;;;;4998035;28;20574;-82
2021/07/26 08:08:16;;;;;;;2.00;1.50;;;39.90;72.00;;;;;;4949772;28;20679;-82
2021/07/26 08:10:42;;;;;;;2.53;1.30;;;39.40;66.70;;;;;;4970845;28;20665;-81
2021/07/26 08:13:08;;;;;;;1.93;1.17;;;39.00;65.90;;;;;;5005006;28;20658;-80
2021/07/26 08:15:34;;;;;;;1.77;1.20;;;38.70;65.60;;;;;;5006212;28;20582;-79
2021/07/26 08:18:02;;;;;;;2.83;1.60;;;38.30;64.10;;;;;;4973525;28;20597;-81
2021/07/26 08:20:27;;;;;;;2.80;1.27;;;37.80;63.40;;;;;;5004614;28;20182;-81
2021/07/26 08:22:53;;;;;;;1.50;1.20;;;37.20;62.60;;;;;;4979737;28;20646;-82
2021/07/26 08:25:22;;;;;;;1.70;1.30;;;36.60;62.40;;;;;;4965842;28;20685;-79
2021/07/26 08:27:56;;;;;;;1.93;1.20;;;36.00;62.20;;;;;;4995571;28;20556;-81
2021/07/26 08:30:30;;;;;;;1.60;1.30;;;35.30;62.50;;;;;;4980632;28;20573;-79
2021/07/26 08:32:56;;;;;;;3.20;1.30;;;34.60;63.20;;;;;;4996608;28;20719;-80
2021/07/26 08:35:23;;;;;;;5.17;1.50;;;34.00;63.70;;;;;;4967414;28;20726;-80
2021/07/26 08:37:52;;;;;;;1.90;1.30;;;33.40;64.70;;;;;;4986518;28;20594;-79
2021/07/26 08:40:23;;;;;;;2.60;1.57;;;32.90;65.60;;;;;;4985411;28;20587;-80
2021/07/26 08:42:49;;;;;;;2.63;1.30;;;32.50;66.70;;;;;;4986332;28;20571;-79
2021/07/26 08:45:15;;;;;;;2.77;1.50;;;32.20;67.80;;;;;;4968988;28;20610;-80
2021/07/26 08:47:44;;;;;;;2.27;1.60;;;32.20;70.10;;;;;;4987190;28;20607;-80
2021/07/26 08:50:17;;;;;;;2.50;1.43;;;32.20;70.40;;;;;;4966779;28;20583;-80
2021/07/26 08:52:48;;;;;;;1.60;1.07;;;32.00;70.00;;;;;;4992434;28;20622;-80
2021/07/26 08:55:16;;;;;;;1.60;1.10;;;31.80;69.60;;;;;;4993719;28;21118;-81
2021/07/26 08:57:46;;;;;;;1.87;1.30;;;31.50;69.50;;;;;;4976031;28;20627;-81
2021/07/26 09:00:20;;;;;;;1.77;1.20;;;31.30;70.10;;;;;;4977862;28;20662;-81
2021/07/26 09:02:46;;;;;;;3.10;1.40;;;31.10;70.30;;;;;;4973877;28;20575;-81
2021/07/26 09:05:13;;;;;;;1.40;0.90;;;30.90;70.30;;;;;;4948424;28;21004;-83
2021/07/26 09:07:44;;;;;;;2.20;1.00;;;30.60;70.30;;;;;;4961629;28;21153;-82
2021/07/26 09:10:13;;;;;;;1.40;0.87;;;30.40;70.60;;;;;;4963008;28;20585;-82
2021/07/26 09:12:40;;;;;;;2.07;0.90;;;30.20;71.10;;;;;;4983483;28;20633;-84
2021/07/26 09:15:27;;;;;;;1.60;0.90;;;30.00;71.30;;;;;;4951514;28;20598;-82
2021/07/26 09:17:55;;;;;;;1.60;1.20;;;29.80;72.00;;;;;;4989017;28;20629;-83
2021/07/26 09:20:21;;;;;;;2.47;1.13;;;29.60;71.80;;;;;;4971035;28;21022;-82
2021/07/26 09:22:47;;;;;;;1.23;0.70;;;29.50;72.20;;;;;;4975374;28;20587;-80
2021/07/26 09:25:20;;;;;;;1.40;0.90;;;29.30;72.30;;;;;;4979998;28;20674;-82
2021/07/26 09:28:04;;;;;;;1.80;1.10;;;29.20;72.70;;;;;;4972999;28;20614;-82
2021/07/26 09:30:41;;;;;;;2.13;0.90;;;29.00;72.90;;;;;;4973495;28;20593;-83
2021/07/26 09:33:28;;;;;;;2.00;1.00;;;28.90;73.10;;;;;;4966662;28;20626;-83
2021/07/26 09:36:03;;;;;;;3.50;0.90;;;28.70;73.70;;;;;;4963499;28;20586;-83
2021/07/26 09:38:30;;;;;;;2.57;0.90;;;28.50;74.00;;;;;;4960761;28;20583;-82
2021/07/26 09:40:56;;;;;;;2.03;0.90;;;28.40;74.30;;;;;;4958286;28;20610;-84
2021/07/26 09:43:24;;;;;;;3.00;0.93;;;28.40;75.30;;;;;;4980891;28;21008;-83
2021/07/26 09:45:56;;;;;;;1.93;0.93;;;28.40;75.70;;;;;;4986122;28;20587;-82
2021/07/26 09:48:26;;;;;;;2.00;1.00;;;28.30;76.40;;;;;;4990045;28;20606;-83
2021/07/26 09:50:53;;;;;;;1.40;0.80;;;28.40;76.80;;;;;;4985217;28;20642;-82
2021/07/26 09:53:21;;;;;;;1.43;0.80;;;28.40;76.90;;;;;;4945232;28;20631;-81
2021/07/26 09:55:51;;;;;;;2.33;0.90;;;28.40;77.00;;;;;;4965757;28;20598;-82
2021/07/26 09:58:18;;;;;;;1.60;0.90;;;28.40;76.90;;;;;;4948621;28;20689;-83
2021/07/26 10:00:46;;;;;;;3.40;0.80;;;28.40;77.10;;;;;;4961884;28;21161;-83
2021/07/26 10:03:14;;;;;;;2.47;1.23;;;28.40;77.50;;;;;;4978106;28;21126;-82
2021/07/26 10:05:42;;;;;;;2.27;1.07;;;28.50;77.80;;;;;;4979592;28;21142;-83
2021/07/26 10:08:10;;;;;;;6.17;1.00;;;28.70;78.10;;;;;;4965309;28;20669;-82
2021/07/26 10:10:38;;;;;;;3.63;1.03;;;29.10;79.60;;;;;;4978201;28;21189;-82
2021/07/26 10:13:05;;;;;;;1.30;0.70;;;29.80;80.70;;;;;;4943170;28;20630;-82
2021/07/26 10:15:32;;;;;;;1.50;0.80;;;30.70;82.10;;;;;;4941778;28;20630;-83
2021/07/26 10:17:58;;;;;;;1.93;1.00;;;31.90;83.20;;;;;;4943204;28;20621;-81
2021/07/26 10:20:27;;;;;;;2.20;1.10;;;32.90;81.10;;;;;;4977056;28;20681;-81
2021/07/26 10:23:04;;;;;;;1.70;1.00;;;33.70;77.50;;;;;;4958751;28;21044;-81
2021/07/26 10:25:39;;;;;;;1.30;0.83;;;34.00;74.00;;;;;;4957206;28;20605;-83
2021/07/26 10:28:14;;;;;;;1.83;0.80;;;34.10;69.70;;;;;;4975607;28;20616;-77
2021/07/26 10:30:40;;;;;;;1.70;0.90;;;33.90;68.80;;;;;;4975773;28;20587;-77
2021/07/26 10:33:06;;;;;;;2.97;0.90;;;33.90;67.90;;;;;;4978965;28;20627;-77
2021/07/26 10:35:35;;;;;;;1.73;0.70;;;33.90;67.50;;;;;;4980192;28;20161;-77
2021/07/26 10:38:00;;;;;;;1.33;0.70;;;33.90;66.60;;;;;;4976693;28;20217;-77
2021/07/26 10:40:31;;;;;;;2.13;1.10;;;33.70;65.90;;;;;;4975544;28;21333;-78
2021/07/26 10:43:02;;;;;;;1.30;0.80;;;33.50;64.20;;;;;;4958424;28;20177;-76
2021/07/26 10:45:33;;;;;;;1.40;0.80;;;33.20;64.30;;;;;;4975398;28;20986;-77
2021/07/26 10:48:20;;;;;;;1.70;0.90;;;32.90;64.40;;;;;;4976229;28;21003;-78
2021/07/26 10:50:47;;;;;;;1.23;0.80;;;32.50;64.40;;;;;;4993662;28;20637;-77
2021/07/26 10:53:31;;;;;;;1.40;0.90;;;32.20;64.50;;;;;;4993929;28;20729;-77
2021/07/26 10:56:11;;;;;;;1.60;1.13;;;32.10;65.70;;;;;;4993752;28;20569;-77
2021/07/26 10:58:40;;;;;;;1.23;0.80;;;32.20;66.90;;;;;;4966070;28;21093;-78
2021/07/26 11:01:29;;;;;;;1.57;1.00;;;32.40;67.10;;;;;;4956036;28;20630;-77
2021/07/26 11:03:56;;;;;;;1.40;1.00;;;32.40;66.60;;;;;;4965670;28;20590;-77
2021/07/26 11:06:37;;;;;;;2.63;1.13;;;32.50;66.40;;;;;;4973546;28;20963;-77
2021/07/26 11:09:21;;;;;;;2.53;0.87;;;32.40;66.00;;;;;;4956140;28;20749;-78
2021/07/26 11:11:51;;;;;;;3.73;1.20;;;32.40;66.10;;;;;;4945300;29;20585;-76
2021/07/26 11:14:19;;;;;;;1.60;0.90;;;32.50;66.10;;;;;;4956390;29;21023;-78
2021/07/26 11:16:51;;;;;;;1.60;1.10;;;32.50;65.60;;;;;;4953609;29;20592;-77
2021/07/26 11:19:41;;;;;;;2.13;0.80;;;32.40;64.80;;;;;;4936426;29;20570;-78
2021/07/26 11:22:16;;;;;;;1.30;0.80;;;32.40;66.20;;;;;;4952651;29;20571;-77
2021/07/26 11:24:48;;;;;;;1.40;0.87;;;32.70;67.00;;;;;;4953808;29;20581;-77
2021/07/26 11:27:16;;;;;;;5.67;0.90;;;32.90;66.40;;;;;;4953776;29;20591;-77
2021/07/26 11:29:49;;;;;;;1.50;0.73;;;33.00;64.90;;;;;;4953418;29;20634;-77
2021/07/26 11:32:19;;;;;;;1.67;0.80;;;33.00;64.00;;;;;;4980179;28;20619;-77
2021/07/26 11:34:45;;;;;;;2.40;1.10;;;33.00;63.30;;;;;;4979411;28;20587;-75
2021/07/26 11:37:15;;;;;;;2.20;0.93;;;32.80;63.50;;;;;;4955314;28;20596;-76
2021/07/26 11:39:48;;;;;;;1.50;0.90;;;32.80;63.80;;;;;;4966089;28;20688;-76
2021/07/26 11:42:18;;;;;;;1.27;0.80;;;33.00;64.90;;;;;;4987410;28;20595;-76
2021/07/26 11:44:46;;;;;;;1.40;0.90;;;33.20;65.40;;;;;;4955638;28;20568;-76
2021/07/26 11:47:13;;;;;;;2.13;0.80;;;33.50;65.50;;;;;;4941698;28;20617;-76
2021/07/26 11:49:47;;;;;;;2.07;0.80;;;33.80;65.30;;;;;;4967740;28;20630;-76
2021/07/26 11:52:13;;;;;;;2.40;0.90;;;34.20;64.80;;;;;;4955123;28;20595;-76
2021/07/26 11:54:41;;;;;;;1.53;1.00;;;34.60;65.70;;;;;;4955537;28;20601;-77
2021/07/26 11:57:09;;;;;;;1.67;0.90;;;35.10;64.80;;;;;;4972031;28;20619;-78
2021/07/26 11:59:36;;;;;;;1.57;0.80;;;35.40;63.00;;;;;;4971643;28;20642;-77
2021/07/26 12:02:12;;;;;;;1.40;0.90;;;35.30;60.80;;;;;;4954911;28;20597;-78
2021/07/26 12:04:38;;;;;;;1.47;0.90;;;35.20;59.30;;;;;;4961035;28;20594;-78
2021/07/26 12:07:06;;;;;;;1.60;1.00;;;35.00;58.90;;;;;;4962021;28;20650;-77
2021/07/26 12:09:33;;;;;;;4.13;0.90;;;34.80;58.80;;;;;;4962348;28;20596;-78
2021/07/26 12:12:11;;;;;;;1.90;1.10;;;34.60;58.90;;;;;;4972264;28;20582;-77
2021/07/26 12:14:37;;;;;;;1.60;0.93;;;34.50;59.20;;;;;;4983883;28;20591;-78
2021/07/26 12:17:07;;;;;;;1.70;0.80;;;34.50;59.30;;;;;;4956568;28;20964;-77
2021/07/26 12:19:38;;;;;;;1.50;0.80;;;34.40;58.40;;;;;;4955088;28;20579;-76
2021/07/26 12:22:18;;;;;;;3.80;3.50;;;34.20;57.80;;;;;;4972136;28;21121;-77
2021/07/26 12:25:01;;;;;;;2.13;1.93;;;34.00;57.70;;;;;;4954661;28;21174;-78
2021/07/26 12:27:32;;;;;;;2.17;1.00;;;33.80;58.00;;;;;;4957642;28;20624;-77
2021/07/26 12:30:01;;;;;;;1.50;0.97;;;33.60;58.40;;;;;;4954855;28;21252;-78
2021/07/26 12:32:27;;;;;;;2.53;1.00;;;33.40;58.60;;;;;;4971947;28;20589;-78
2021/07/26 12:35:21;;;;;;;1.70;0.90;;;33.20;58.60;;;;;;4955691;28;20587;-76
2021/07/26 12:38:09;;;;;;;2.40;0.97;;;33.00;58.80;;;;;;4970874;28;20595;-77
2021/07/26 12:40:37;;;;;;;3.10;1.10;;;32.90;58.90;;;;;;4935579;29;20581;-77
2021/07/26 12:43:10;;;;;;;3.43;0.93;;;32.70;59.10;;;;;;4966048;28;20594;-78
2021/07/26 12:45:38;;;;;;;1.40;1.00;;;32.60;59.30;;;;;;4954491;28;20580;-79
2021/07/26 12:48:10;;;;;;;1.83;0.80;;;32.50;59.30;;;;;;4971940;28;20638;-78
2021/07/26 12:50:44;;;;;;;2.40;0.90;;;32.40;59.30;;;;;;4974655;28;20930;-80
2021/07/26 12:53:11;;;;;;;1.90;0.93;;;32.30;59.60;;;;;;4971745;28;20641;-79
2021/07/26 12:55:43;;;;;;;1.87;1.37;;;32.20;59.50;;;;;;4955178;28;21271;-79